• Join FlightAware (Why Join?)
  • Login
  • US Flag 
05:09AM EDT


 

Airport Tracker/Info


-or-


 

Live Flight TrackerFlight Track Log ✈ SWA580 ✈ 26-Apr-2013 ✈ KSMF - KDEN

Flight Track Log - Related Links

Times and Time Zones

All times are in EDT time to prevent confusion due to time zone crossing. See the SWA580 flight status page for this flight to view local times or setup timezone preferences in your user account.

Time Position Orientation Groundspeed Altitude Reporting Facility
EDT Latitude Longitude Course Direction KTS MPH feet Rate Location/Type
09:40AM 38.7333 -121.6000 78° East 178 205 1,600  Level Northern Cal TRACON
09:41AM 38.7667 -121.5500 49° Northeast 228 262 3,700 2,520 Climbing Northern Cal TRACON
09:42AM 38.7333 -121.4667 117° Southeast 270 311 6,700 2,820 Climbing Northern Cal TRACON
09:43AM 38.7275 -121.3225 93° East 286 329 11,000 2,940 Climbing Oakland Center
09:44AM 38.7231 -121.1983 93° East 336 387 14,300 3,060 Climbing Oakland Center
09:45AM 38.5759 -120.8620 78° East  Level FlightAware Approximate
09:45AM 38.7375 -121.0678 82° East 365 420 17,200  Level Oakland Center
09:46AM 38.7508 -120.9336 83° East 375 432 19,800 2,580 Climbing Oakland Center
09:47AM 38.7644 -120.7942 83° East 389 448 22,500 2,400 Climbing Oakland Center
09:48AM 38.7792 -120.6514 82° East 400 460 24,800 2,100 Climbing Oakland Center
09:49AM 38.7939 -120.5039 83° East 412 474 26,800 2,400 Climbing Oakland Center
09:50AM 38.8078 -120.3569 83° East 414 476 29,700 1,860 Climbing Oakland Center
09:51AM 38.8214 -120.2114 83° East 412 474 30,700 1,080 Climbing Oakland Center
09:52AM 38.8389 -120.0558 82° East 433 498 31,900 1,500 Climbing Oakland Center
09:53AM 38.8553 -119.8992 82° East 440 506 33,800 1,980 Climbing Oakland Center
09:54AM 38.8678 -119.7153 85° East 436 502 35,900 1,560 Climbing Oakland Center
09:55AM 38.8819 -119.5653 83° East 427 491 37,000 780 Climbing Oakland Center
09:56AM 38.8967 -119.4097 83° East 440 506 37,600 660 Climbing Oakland Center
09:57AM 38.9092 -119.2508 84° East 448 516 38,400 660 Climbing Oakland Center
09:58AM 38.9217 -119.0928 84° East 448 516 39,000 240 Climbing Oakland Center
09:59AM 38.9358 -118.9369 83° East 444 511 39,000  Level Oakland Center
10:00AM 38.9494 -118.7792 84° East 448 516 39,000  Level Oakland Center
10:01AM 38.9617 -118.6233 84° East 444 511 39,000  Level Oakland Center
10:02AM 38.9750 -118.4669 84° East 443 510 39,000  Level Oakland Center
10:03AM 38.9897 -118.2794 84° East 443 510 39,000  Level Oakland Center
10:04AM 39.0019 -118.1233 84° East 443 510 39,000 -60 Level Oakland Center
10:05AM 39.0142 -117.9689 84° East 438 504 38,900 -540 Descending Oakland Center
10:06AM 39.0267 -117.8150 84° East 435 501 37,900 -960 Descending Oakland Center
10:07AM 39.0383 -117.6589 84° East 437 503 37,000 -480 Descending Oakland Center
10:08AM 39.0492 -117.5006 85° East 443 510 37,000  Level Oakland Center
10:09AM 39.0603 -117.3431 85° East 445 512 37,000  Level Oakland Center
10:11AM 39.0714 -117.1881 85° East 437 503 37,000  Level Oakland Center
10:12AM 39.0811 -117.0289 85° East 437 503 37,000  Level Oakland Center
10:13AM 39.0914 -116.8736 85° East 435 501 37,000  Level Oakland Center
10:13AM 39.1086 -116.7097 82° East 440 506 37,000  Level Salt Lake Center
10:14AM 39.1317 -116.5614 79° East 442 509 37,000  Level Salt Lake Center
10:16AM 39.1542 -116.4131 79° East 441 507 37,000  Level Salt Lake Center
10:17AM 39.1786 -116.2394 80° East 442 509 37,000  Level Salt Lake Center
10:18AM 39.1992 -116.0900 80° East 443 510 37,000  Level Salt Lake Center
10:19AM 39.2236 -115.9167 80° East 442 509 37,000  Level Salt Lake Center
10:20AM 39.2456 -115.7669 79° East 443 510 37,000  Level Salt Lake Center
10:21AM 39.2667 -115.6161 80° East 446 513 37,000  Level Salt Lake Center
10:22AM 39.2906 -115.4417 80° East 444 511 37,000  Level Salt Lake Center
10:23AM 39.3114 -115.2919 80° East 445 512 37,000  Level Salt Lake Center
10:24AM 39.3356 -115.1158 80° East 446 513 37,000  Level Salt Lake Center
10:25AM 39.3542 -114.9664 81° East 442 509 37,000  Level Salt Lake Center
10:26AM 39.3775 -114.7889 80° East 449 517 37,000  Level Salt Lake Center
10:27AM 39.3967 -114.6369 81° East 450 518 37,000  Level Salt Lake Center
10:28AM 39.4172 -114.4819 80° East 454 522 37,000  Level Salt Lake Center
10:29AM 39.4406 -114.3131 80° East 456 525 37,000  Level Salt Lake Center
10:31AM 39.4803 -113.9967 81° East 443 510 37,000  Level Salt Lake Center
10:32AM 39.5003 -113.8397 81° East 442 509 37,000  Level Salt Lake Center
10:33AM 39.5219 -113.6519 81° East 442 509 37,000  Level Salt Lake Center
10:34AM 39.5408 -113.4964 81° East 439 505 37,000  Level Salt Lake Center
10:35AM 39.5589 -113.3428 81° East 433 498 37,000  Level Salt Lake Center
10:36AM 39.5775 -113.1886 81° East 433 498 37,000  Level Salt Lake Center
10:37AM 39.5956 -113.0336 81° East 436 502 37,000  Level Salt Lake Center
10:38AM 39.6131 -112.8767 82° East 439 505 37,000  Level Salt Lake Center
10:39AM 39.6308 -112.7217 81° East 436 502 37,000  Level Salt Lake Center
10:40AM 39.6508 -112.5461 82° East 437 503 37,000  Level Salt Lake Center
10:41AM 39.6686 -112.3883 82° East 442 509 37,000  Level Salt Lake Center
10:42AM 39.6850 -112.2325 82° East 440 506 37,000  Level Salt Lake Center
10:43AM 39.7022 -112.0753 82° East 442 509 37,000  Level Salt Lake Center
10:44AM 39.7225 -111.8878 82° East 441 507 37,000  Level Salt Lake Center
10:45AM 39.7386 -111.7325 82° East 437 503 37,000  Level Salt Lake Center
10:46AM 39.7542 -111.5778 83° East 435 501 37,000  Level Salt Lake Center
10:47AM 39.7700 -111.4236 82° East 433 498 37,000  Level Salt Lake Center
10:48AM 39.7856 -111.2653 83° East 435 501 37,000  Level Salt Lake Center
10:49AM 39.8017 -111.0931 83° East 431 496 37,000  Level Salt Lake Center
10:50AM 39.8169 -110.9425 82° East 438 504 37,000  Level Salt Lake Center
10:51AM 39.8339 -110.7681 83° East 438 504 37,000 -180 Level Salt Lake Center
10:53AM 39.8483 -110.6158 83° East 441 507 36,700 -660 Descending Salt Lake Center
10:54AM 39.8608 -110.4667 84° East 436 502 35,700 -840 Descending Salt Lake Center
10:55AM 39.8781 -110.2944 83° East 432 497 35,000 -360 Descending Salt Lake Center
10:56AM 39.8900 -110.1478 84° East 427 491 35,000  Level Salt Lake Center
10:57AM 39.9050 -109.9753 83° East 428 493 35,000  Level Salt Lake Center
10:58AM 39.9186 -109.8278 83° East 430 495 35,000  Level Salt Lake Center
10:59AM 39.9331 -109.6561 84° East 428 493 35,000  Level Salt Lake Center
10:59AM 39.9367 -109.6047 85° East 430 495 35,000  Level Denver Center
11:00AM 39.9525 -109.4333 83° East 427 491 35,000  Level Denver Center
11:01AM 39.9639 -109.2856 84° East 427 491 35,000  Level Denver Center
11:02AM 39.9783 -109.1119 84° East 429 494 35,000  Level Denver Center
11:03AM 39.9844 -109.0392 84° East 431 496 35,000  Level Salt Lake Center
11:04AM 39.9983 -108.8617 84° East 436 502 35,000  Level Salt Lake Center
11:04AM 40.0022 -108.8086 85° East 439 505 35,000  Level Denver Center
11:05AM 40.0161 -108.6286 84° East 443 510 35,000  Level Denver Center
11:06AM 40.0283 -108.4731 84° East 447 514 35,000  Level Denver Center
11:07AM 40.0403 -108.2917 85° East 447 514 35,000  Level Denver Center
11:08AM 40.0517 -108.1358 84° East 449 517 35,000  Level Denver Center
11:09AM 40.0650 -107.9539 84° East 451 519 35,000  Level Denver Center
11:10AM 40.0919 -107.8022 77° East 447 514 35,000  Level Denver Center
11:12AM 40.1272 -107.6275 75° East 447 514 35,000  Level Denver Center
11:13AM 40.1583 -107.4769 75° East 447 514 35,000  Level Denver Center
11:14AM 40.1883 -107.3258 75° East 449 517 35,000  Level Denver Center
11:15AM 40.2219 -107.1489 76° East 449 517 35,000 -300 Level Denver Center
11:16AM 40.2525 -106.9989 75° East 447 514 34,400 -780 Descending Denver Center
11:17AM 40.2836 -106.8417 75° East 445 512 33,400 -1,020 Descending Denver Center
11:18AM 40.3142 -106.6875 75° East 438 504 32,400 -1,020 Descending Denver Center
11:19AM 40.3492 -106.5075 76° East 433 498 31,300 -1,020 Descending Denver Center
11:20AM 40.3753 -106.3619 77° East 427 491 30,300 -960 Descending Denver Center
11:21AM 40.4072 -106.1917 76° East 429 494 29,300 -1,020 Descending Denver Center
11:22AM 40.4372 -106.0308 76° East 432 497 28,200 -1,260 Descending Denver Center
11:23AM 40.4269 -105.8750 95° East 426 490 26,800 -1,740 Descending Denver Center
11:24AM 40.4028 -105.7261 102° East 417 480 24,700 -1,860 Descending Denver Center
11:25AM 40.3808 -105.5856 102° East 394 453 23,000 -1,500 Descending Denver Center
11:26AM 40.3569 -105.4436 102° East 379 436 21,600 -1,500 Descending Denver Center
11:27AM 40.2978 -105.3458 128° Southeast 340 391 20,000 -1,620 Descending Denver Center
11:28AM 40.2347 -105.2447 129° Southeast 332 382 18,300 -1,500 Descending Denver Center
11:29AM 40.1761 -105.1536 130° Southeast 328 377 17,000 -660 Descending Denver Center
11:30AM 40.1128 -105.0550 130° Southeast 329 379 17,000 -720 Level Denver Center
11:31AM 40.0547 -104.9647 130° Southeast 327 376 15,600 -1,500 Descending Denver Center
11:32AM 39.9944 -104.8714 130° Southeast 316 364 13,900 -1,560 Descending Denver Center
11:33AM 39.9306 -104.8064 142° Southeast 296 341 12,400 -1,260 Descending Denver Center
11:34AM 39.8414 -104.8081 181° South 297 342 11,300 -780 Descending Denver Center
11:35AM 39.7678 -104.8036 177° South 271 312 10,800 -780 Descending Denver Center
11:36AM 39.7036 -104.7586 152° Southeast 243 280 9,800 -1,380 Descending Denver Center
11:37AM 39.7000 -104.6936 94° East 212 244 8,000 -1,440 Descending Denver Center
11:38AM 39.7528 -104.6608 26° Northeast 194 223 6,900 -960 Descending Denver Center
11:39AM 39.7956 -104.6617 359° North 156 180 6,100 -780 Descending Denver Center
11:40AM 39.8361 -104.6614 360° North 144 166 5,300 -780 Descending Denver Center
11:42AM 39.8500 -104.6667 North  Level FlightAware Approximate
11:49AM 39.8617 -104.6732 North  Level Estimated
11:50AM 39.8617 -104.6732 North  Level Estimated
11:51AM 39.8617 -104.6732 North  Level Estimated